KMZH Airport (Moose Lake Carlton County) Information

FAA: MZH - ICAO: KMZH

KMZH Airport Location

State Minnesota
County Carlton
City Moose Lake
KMZH Airport is 3 miles southwest of Moose Lake, MN.
Latitude 46-25-07.0000N
Longitude 092-48-17.2000W
Elevation 1,076ft

KMZH Airport METARs

METAR KMZH 270015Z AUTO 00000KT 10SM SCT110 M01/M13 A2986 RMK AO2
Altimeter 29.86"
Temperature -1.0°C (30.2°F)
Wind 0° at 0KT
Clouds scattered at 11,000ft
Visibility 10.0mi
Time observed: 2021-11-27T00:15:00Z

KMZH Airport Details

Status Operational
Activation January 1951
Ownership Public
Usage Public
Chart GREEN BAY
ATC on-site No
Beacon schedule sunset-sunrise
Beacon color clear green

KMZH Airport Contacts

Owner CARLTON COUNTY
Owner address 1630 CO ROAD 61, CARLTON, MN 55718
Owner phone 218-834-9150
Manager PHILIP TIEDEMAN
Manager address 5800 CRYSTAL AIRPORT ROAD, MINNEAPOLIS, MN 55429
Manager phone 763-717-0001

KMZH Airport (Moose Lake Carlton County) Radio Frequencies

KMZH (Airport) Radio Frequencies

UNICOM N/A
Common traffic advisory frequency (CTAF) 122.9